createdAt,value
2018-05-16T00:00:29.072Z,81.95
2018-05-16T00:01:29.216Z,81.41
2018-05-16T00:02:40.070Z,81.70
2018-05-16T00:03:29.465Z,81.41
2018-05-16T00:04:29.604Z,81.70
2018-05-16T00:05:29.741Z,81.70
2018-05-16T00:06:29.887Z,81.60
2018-05-16T00:07:30.022Z,81.37
2018-05-16T00:08:30.160Z,81.27
2018-05-16T00:09:30.309Z,81.51
2018-05-16T00:10:30.446Z,81.70
2018-05-16T00:11:30.587Z,81.75
2018-05-16T00:12:30.730Z,81.56
2018-05-16T00:13:30.863Z,81.75
2018-05-16T00:14:31.007Z,81.46
2018-05-16T00:15:31.147Z,80.89
2018-05-16T00:16:31.286Z,81.31
2018-05-16T00:17:31.426Z,81.27
2018-05-16T00:18:31.561Z,81.08
2018-05-16T00:19:31.701Z,81.46
2018-05-16T00:20:31.837Z,81.12
2018-05-16T00:21:31.970Z,81.27
2018-05-16T00:22:32.103Z,80.70
2018-05-16T00:23:32.268Z,80.74
2018-05-16T00:24:32.387Z,80.55
2018-05-16T00:25:32.528Z,81.08
2018-05-16T00:26:32.668Z,80.70
2018-05-16T00:27:32.807Z,80.03
2018-05-16T00:28:32.946Z,79.93
2018-05-16T00:29:33.089Z,80.12
2018-05-16T00:30:33.228Z,80.12
2018-05-16T00:31:33.362Z,80.41
2018-05-16T00:32:33.507Z,80.32
2018-05-16T00:33:33.662Z,80.12
2018-05-16T00:34:33.804Z,79.83
2018-05-16T00:35:33.939Z,79.83
2018-05-16T00:36:34.101Z,79.36
2018-05-16T00:37:34.231Z,79.74
2018-05-16T00:38:34.369Z,79.45
2018-05-16T00:39:34.518Z,79.26
2018-05-16T00:40:34.646Z,79.45
2018-05-16T00:41:34.784Z,79.45
2018-05-16T00:42:34.988Z,78.97
2018-05-16T00:43:35.032Z,79.26
2018-05-16T00:44:35.166Z,78.97
2018-05-16T00:45:35.315Z,78.49
2018-05-16T00:46:35.454Z,78.78
2018-05-16T00:47:35.609Z,79.16
2018-05-16T00:48:35.744Z,78.69
2018-05-16T00:49:35.891Z,78.88
2018-05-16T00:50:36.024Z,78.49
2018-05-16T00:51:36.189Z,79.26
2018-05-16T00:52:36.324Z,79.16
2018-05-16T00:53:36.467Z,79.36
2018-05-16T00:54:36.604Z,79.21
2018-05-16T00:55:36.745Z,79.36
2018-05-16T00:56:36.886Z,79.36
2018-05-16T00:57:37.025Z,79.16
2018-05-16T00:58:37.203Z,79.30
2018-05-16T00:59:37.341Z,79.30
2018-05-16T01:00:37.481Z,79.16
2018-05-16T01:01:37.619Z,79.26
2018-05-16T01:02:37.788Z,79.36
2018-05-16T01:03:37.936Z,79.45
2018-05-16T01:04:38.096Z,79.45
2018-05-16T01:05:38.210Z,79.26
2018-05-16T01:06:38.381Z,79.26
2018-05-16T01:07:38.517Z,79.36
2018-05-16T01:08:38.661Z,79.26
2018-05-16T01:09:38.792Z,79.45
2018-05-16T01:10:38.936Z,79.74
2018-05-16T01:11:39.068Z,79.45
2018-05-16T01:12:39.200Z,79.36
2018-05-16T01:13:39.336Z,79.26
2018-05-16T01:14:39.505Z,80.03
2018-05-16T01:15:39.632Z,78.97
2018-05-16T01:16:39.770Z,79.36
2018-05-16T01:17:39.938Z,79.55
2018-05-16T01:18:40.076Z,79.26
2018-05-16T01:19:40.206Z,79.36
2018-05-16T01:20:40.345Z,79.45
2018-05-16T01:21:40.515Z,79.36
2018-05-16T01:22:40.651Z,79.55
2018-05-16T01:23:40.794Z,79.55
2018-05-16T01:24:40.931Z,79.64
2018-05-16T01:25:41.099Z,79.55
2018-05-16T01:26:41.230Z,79.45
2018-05-16T01:27:41.373Z,79.74
2018-05-16T01:28:41.505Z,79.16
2018-05-16T01:29:41.704Z,78.97
2018-05-16T01:30:41.799Z,79.16
2018-05-16T01:31:41.933Z,79.26
2018-05-16T01:32:42.073Z,79.36
2018-05-16T01:33:42.235Z,79.45
2018-05-16T01:34:42.367Z,79.07
2018-05-16T01:35:42.510Z,79.16
2018-05-16T01:36:42.655Z,79.26
2018-05-16T01:37:42.807Z,79.07
2018-05-16T01:38:42.945Z,79.07
2018-05-16T01:39:43.084Z,79.55
2018-05-16T01:40:43.219Z,79.16
2018-05-16T01:41:43.372Z,79.45
2018-05-16T01:42:43.509Z,79.45
2018-05-16T01:43:43.648Z,79.36
2018-05-16T01:44:43.786Z,79.26
2018-05-16T01:45:43.962Z,79.16
2018-05-16T01:46:44.096Z,79.36
2018-05-16T01:47:44.241Z,79.26
2018-05-16T01:48:44.403Z,79.32
2018-05-16T01:49:44.565Z,79.93
2018-05-16T01:50:44.700Z,80.03
2018-05-16T01:51:44.839Z,79.74
2018-05-16T01:52:44.985Z,79.93
2018-05-16T01:53:45.123Z,80.18
2018-05-16T01:54:45.262Z,80.41
2018-05-16T01:55:45.401Z,79.99
2018-05-16T01:56:45.571Z,80.12
2018-05-16T01:57:45.706Z,80.56
2018-05-16T01:58:45.849Z,80.51
2018-05-16T01:59:45.992Z,80.32
2018-05-16T02:00:46.151Z,79.99
2018-05-16T02:01:46.288Z,80.18
2018-05-16T02:02:46.423Z,79.80
2018-05-16T02:03:46.577Z,80.18
2018-05-16T02:04:46.712Z,79.89
2018-05-16T02:05:46.900Z,80.08
2018-05-16T02:06:47.041Z,79.93
2018-05-16T02:07:47.226Z,79.99
2018-05-16T02:08:47.332Z,80.08
2018-05-16T02:09:47.498Z,80.08
2018-05-16T02:10:47.662Z,80.08
2018-05-16T02:11:47.831Z,79.89
2018-05-16T02:12:47.940Z,80.37
2018-05-16T02:13:48.076Z,80.37
2018-05-16T02:14:48.213Z,80.94
2018-05-16T02:15:48.376Z,80.66
2018-05-16T02:16:48.505Z,80.76
2018-05-16T02:17:48.651Z,80.76
2018-05-16T02:18:48.800Z,80.66
2018-05-16T02:19:48.976Z,80.47
2018-05-16T02:20:49.102Z,80.56
2018-05-16T02:21:49.247Z,80.56
2018-05-16T02:22:49.410Z,80.47
2018-05-16T02:23:49.540Z,80.76
2018-05-16T02:24:49.679Z,80.56
2018-05-16T02:25:49.819Z,80.85
2018-05-16T02:26:49.950Z,80.47
2018-05-16T02:27:50.089Z,80.56
2018-05-16T02:28:50.220Z,81.23
2018-05-16T02:29:50.368Z,81.23
2018-05-16T02:30:50.516Z,81.23
2018-05-16T02:31:50.649Z,80.94
2018-05-16T02:32:50.801Z,80.85
2018-05-16T02:33:50.931Z,80.37
2018-05-16T02:34:51.121Z,80.76
2018-05-16T02:35:51.976Z,80.76
2018-05-16T02:36:51.371Z,80.85
2018-05-16T02:37:51.511Z,80.85
2018-05-16T02:38:51.677Z,80.85
2018-05-16T02:39:51.810Z,80.37
2018-05-16T02:40:51.949Z,80.76
2018-05-16T02:41:52.106Z,80.56
2018-05-16T02:42:52.241Z,80.27
2018-05-16T02:43:52.382Z,80.27
2018-05-16T02:44:52.979Z,80.37
2018-05-16T02:45:52.621Z,80.56
2018-05-16T02:46:52.761Z,80.66
2018-05-16T02:47:52.903Z,80.27
2018-05-16T02:48:53.039Z,80.41
2018-05-16T02:49:53.210Z,80.51
2018-05-16T02:50:53.345Z,80.12
2018-05-16T02:51:53.476Z,80.41
2018-05-16T02:52:53.656Z,80.70
2018-05-16T02:53:53.782Z,80.79
2018-05-16T02:54:53.924Z,80.66
2018-05-16T02:55:54.101Z,80.56
2018-05-16T02:56:54.219Z,80.85
2018-05-16T02:57:54.356Z,80.56
2018-05-16T02:58:54.507Z,80.56
2018-05-16T02:59:54.647Z,80.41
2018-05-16T03:00:54.782Z,80.66
2018-05-16T03:01:54.913Z,80.85
2018-05-16T03:02:55.060Z,80.56
2018-05-16T03:03:55.194Z,80.27
2018-05-16T03:04:55.336Z,80.56
2018-05-16T03:05:55.470Z,80.56
2018-05-16T03:06:55.692Z,80.56
2018-05-16T03:07:55.796Z,80.66
2018-05-16T03:08:55.811Z,80.85
2018-05-16T03:09:55.945Z,81.23
2018-05-16T03:10:56.087Z,80.66
2018-05-16T03:11:56.246Z,80.85
2018-05-16T03:12:56.365Z,80.47
2018-05-16T03:13:56.514Z,80.56
2018-05-16T03:14:56.667Z,80.66
2018-05-16T03:15:56.808Z,80.27
2018-05-16T03:16:56.966Z,81.13
2018-05-16T03:17:57.107Z,80.76
2018-05-16T03:18:57.243Z,81.23
2018-05-16T03:19:57.387Z,81.52
2018-05-16T03:20:57.530Z,81.52
2018-05-16T03:21:57.666Z,81.43
2018-05-16T03:22:57.805Z,81.33
2018-05-16T03:23:57.942Z,82.00
2018-05-16T03:24:58.082Z,82.09
2018-05-16T03:25:58.207Z,81.52
2018-05-16T03:26:58.358Z,81.90
2018-05-16T03:27:58.502Z,81.62
2018-05-16T03:28:58.639Z,81.81
2018-05-16T03:29:58.782Z,81.90
2018-05-16T03:30:58.926Z,81.71
2018-05-16T03:31:59.070Z,81.81
2018-05-16T03:32:59.197Z,81.71
2018-05-16T03:33:59.335Z,81.71
2018-05-16T03:34:59.481Z,82.19
2018-05-16T03:35:59.623Z,82.29
2018-05-16T03:36:59.764Z,81.71
2018-05-16T03:37:59.902Z,81.90
2018-05-16T03:39:00.045Z,81.90
2018-05-16T03:40:00.177Z,81.52
2018-05-16T03:41:00.317Z,81.90
2018-05-16T03:42:00.456Z,82.19
2018-05-16T03:43:00.591Z,81.52
2018-05-16T03:44:00.728Z,82.00
2018-05-16T03:45:00.870Z,81.23
2018-05-16T03:46:01.012Z,81.52
2018-05-16T03:47:01.149Z,81.71
2018-05-16T03:48:01.287Z,81.04
2018-05-16T03:49:01.423Z,81.04
2018-05-16T03:50:01.568Z,81.13
2018-05-16T03:51:01.715Z,81.33
2018-05-16T03:52:01.884Z,81.04
2018-05-16T03:53:01.995Z,80.66
2018-05-16T03:54:02.132Z,80.37
2018-05-16T03:55:02.276Z,80.85
2018-05-16T03:56:02.409Z,80.66
2018-05-16T03:57:02.548Z,80.66
2018-05-16T03:58:02.724Z,80.56
2018-05-16T03:59:02.863Z,80.56
2018-05-16T04:00:03.015Z,80.47
2018-05-16T04:01:03.156Z,80.56
2018-05-16T04:02:03.294Z,80.47
2018-05-16T04:03:03.429Z,80.66
2018-05-16T04:04:03.562Z,81.13
2018-05-16T04:05:03.703Z,80.66
2018-05-16T04:06:03.842Z,80.66
2018-05-16T04:07:03.978Z,81.23
2018-05-16T04:08:04.125Z,81.13
2018-05-16T04:09:04.255Z,81.33
2018-05-16T04:10:05.005Z,80.66
2018-05-16T04:11:04.547Z,80.47
2018-05-16T04:12:04.686Z,80.66
2018-05-16T04:13:04.818Z,80.56
2018-05-16T04:14:04.965Z,80.66
2018-05-16T04:15:05.096Z,81.13
2018-05-16T04:16:05.235Z,80.94
2018-05-16T04:17:05.375Z,81.43
2018-05-16T04:18:05.512Z,81.04
2018-05-16T04:19:05.663Z,81.13
2018-05-16T04:20:05.805Z,81.04
2018-05-16T04:21:05.943Z,81.52
2018-05-16T04:22:06.104Z,80.85
2018-05-16T04:23:06.249Z,81.13
2018-05-16T04:24:06.399Z,80.76
2018-05-16T04:25:06.532Z,80.27
2018-05-16T04:26:06.685Z,80.56
2018-05-16T04:27:06.814Z,80.27
2018-05-16T04:28:06.960Z,80.37
2018-05-16T04:29:07.088Z,80.85
2018-05-16T04:30:07.261Z,80.76
2018-05-16T04:31:07.394Z,80.94
2018-05-16T04:32:07.538Z,80.76
2018-05-16T04:33:07.702Z,80.56
2018-05-16T04:34:07.835Z,80.47
2018-05-16T04:35:07.976Z,80.27
2018-05-16T04:36:08.112Z,80.37
2018-05-16T04:37:08.281Z,80.56
2018-05-16T04:38:08.414Z,80.37
2018-05-16T04:39:08.558Z,80.76
2018-05-16T04:40:08.693Z,80.47
2018-05-16T04:41:08.846Z,80.85
2018-05-16T04:42:08.983Z,80.76
2018-05-16T04:43:09.126Z,80.66
2018-05-16T04:44:09.283Z,79.99
2018-05-16T04:45:09.418Z,80.03
2018-05-16T04:46:09.556Z,80.08
2018-05-16T04:47:09.709Z,80.37
2018-05-16T04:48:09.870Z,80.85
2018-05-16T04:49:10.001Z,80.56
2018-05-16T04:50:10.143Z,80.66
2018-05-16T04:51:10.282Z,80.66
2018-05-16T04:52:10.430Z,80.66
2018-05-16T04:53:10.561Z,80.66
2018-05-16T04:54:10.701Z,80.56
2018-05-16T04:55:10.862Z,80.56
2018-05-16T04:56:10.993Z,80.85
2018-05-16T04:57:11.126Z,80.85
2018-05-16T04:58:11.271Z,80.85
2018-05-16T04:59:11.440Z,80.56
2018-05-16T05:00:11.575Z,80.18
2018-05-16T05:01:11.717Z,79.80
2018-05-16T05:02:11.856Z,80.37
2018-05-16T05:03:11.998Z,80.56
2018-05-16T05:04:12.132Z,80.32
2018-05-16T05:05:12.272Z,80.56
2018-05-16T05:06:12.407Z,80.56
2018-05-16T05:07:12.576Z,80.79
2018-05-16T05:08:12.716Z,80.70
2018-05-16T05:09:12.862Z,80.51
2018-05-16T05:10:13.002Z,80.85
2018-05-16T05:11:13.159Z,80.47
2018-05-16T05:12:13.294Z,81.13
2018-05-16T05:13:13.437Z,80.76
2018-05-16T05:14:13.577Z,80.70
2018-05-16T05:15:13.739Z,80.94
2018-05-16T05:16:13.877Z,80.99
2018-05-16T05:17:14.019Z,80.79
2018-05-16T05:18:14.268Z,81.23
2018-05-16T05:19:14.317Z,81.13
2018-05-16T05:20:14.452Z,81.56
2018-05-16T05:21:14.601Z,81.27
2018-05-16T05:22:14.733Z,81.56
2018-05-16T05:23:14.873Z,80.70
2018-05-16T05:24:15.019Z,80.79
2018-05-16T05:25:15.192Z,80.79
2018-05-16T05:26:15.327Z,80.51
2018-05-16T05:27:15.479Z,80.51
2018-05-16T05:28:15.610Z,80.51
2018-05-16T05:29:15.774Z,80.60
2018-05-16T05:30:15.932Z,80.60
2018-05-16T05:31:16.053Z,80.60
2018-05-16T05:32:16.195Z,80.89
2018-05-16T05:33:16.356Z,80.70
2018-05-16T05:34:16.501Z,80.41
2018-05-16T05:35:16.633Z,80.12
2018-05-16T05:36:16.833Z,80.03
2018-05-16T05:37:16.877Z,80.12
2018-05-16T05:38:17.010Z,80.41
2018-05-16T05:39:17.149Z,80.32
2018-05-16T05:40:17.287Z,80.79
2018-05-16T05:41:17.450Z,80.60
2018-05-16T05:42:17.588Z,79.93
2018-05-16T05:43:17.721Z,79.93
2018-05-16T05:44:17.860Z,80.51
2018-05-16T05:45:18.006Z,80.51
2018-05-16T05:46:18.144Z,80.60
2018-05-16T05:47:18.279Z,80.70
2018-05-16T05:48:18.416Z,80.41
2018-05-16T05:49:18.636Z,80.03
2018-05-16T05:50:18.723Z,80.12
2018-05-16T05:51:18.865Z,79.93
2018-05-16T05:52:19.011Z,79.83
2018-05-16T05:53:19.166Z,79.97
2018-05-16T05:54:19.295Z,80.03
2018-05-16T05:55:19.437Z,80.12
2018-05-16T05:56:19.607Z,79.07
2018-05-16T05:57:19.745Z,79.36
2018-05-16T05:58:19.885Z,79.30
2018-05-16T05:59:20.055Z,78.49
2018-05-16T06:00:20.191Z,79.45
2018-05-16T06:01:20.327Z,79.59
2018-05-16T06:02:20.534Z,79.01
2018-05-16T06:03:20.621Z,78.92
2018-05-16T06:04:20.757Z,78.69
2018-05-16T06:05:20.981Z,78.72
2018-05-16T06:06:21.147Z,78.82
2018-05-16T06:07:21.187Z,78.78
2018-05-16T06:08:21.322Z,78.82
2018-05-16T06:09:21.486Z,78.49
2018-05-16T06:10:21.623Z,78.88
2018-05-16T06:11:21.766Z,78.72
2018-05-16T06:12:21.909Z,78.63
2018-05-16T06:13:22.060Z,78.53
2018-05-16T06:14:22.193Z,79.39
2018-05-16T06:15:22.336Z,79.39
2018-05-16T06:16:22.482Z,79.30
2018-05-16T06:17:22.643Z,79.21
2018-05-16T06:18:22.787Z,78.63
2018-05-16T06:19:22.930Z,78.72
2018-05-16T06:20:23.091Z,78.63
2018-05-16T06:21:23.219Z,78.25
2018-05-16T06:22:23.360Z,78.44
2018-05-16T06:23:23.497Z,77.67
2018-05-16T06:24:23.658Z,77.95
2018-05-16T06:25:23.793Z,77.48
2018-05-16T06:26:23.940Z,78.44
2018-05-16T06:27:24.254Z,77.76
2018-05-16T06:28:24.227Z,77.86
2018-05-16T06:29:24.356Z,77.00
2018-05-16T06:30:24.496Z,76.90
2018-05-16T06:31:24.637Z,77.09
2018-05-16T06:32:24.796Z,77.29
2018-05-16T06:33:24.925Z,77.58
2018-05-16T06:34:25.072Z,77.00
2018-05-16T06:35:25.236Z,76.62
2018-05-16T06:36:25.372Z,76.23
2018-05-16T06:37:25.518Z,76.90
2018-05-16T06:38:25.656Z,77.58
2018-05-16T06:39:25.808Z,76.90
2018-05-16T06:40:25.942Z,77.29
2018-05-16T06:41:26.090Z,77.38
2018-05-16T06:42:26.228Z,77.51
2018-05-16T06:43:26.368Z,77.29
2018-05-16T06:44:26.516Z,76.84
2018-05-16T06:45:26.654Z,76.23
2018-05-16T06:46:26.791Z,75.98
2018-05-16T06:47:26.982Z,76.27
2018-05-16T06:48:27.119Z,75.98
2018-05-16T06:49:27.255Z,75.98
2018-05-16T06:50:27.399Z,75.79
2018-05-16T06:51:27.536Z,76.07
2018-05-16T06:52:27.677Z,76.07
2018-05-16T06:53:27.815Z,75.98
2018-05-16T06:54:27.951Z,75.56
2018-05-16T06:55:28.091Z,75.70
2018-05-16T06:56:28.289Z,75.98
2018-05-16T06:57:28.387Z,75.08
2018-05-16T06:58:28.506Z,75.95
2018-05-16T06:59:28.711Z,75.46
2018-05-16T07:00:28.745Z,75.65
2018-05-16T07:01:28.880Z,75.46
2018-05-16T07:02:29.020Z,74.69
2018-05-16T07:03:29.156Z,75.85
2018-05-16T07:04:29.301Z,75.65
2018-05-16T07:05:29.441Z,76.04
2018-05-16T07:06:29.579Z,76.04
2018-05-16T07:07:29.717Z,75.85
2018-05-16T07:08:29.857Z,75.65
2018-05-16T07:09:29.993Z,76.42
2018-05-16T07:10:30.135Z,75.56
2018-05-16T07:11:30.282Z,75.60
2018-05-16T07:12:30.425Z,75.70
2018-05-16T07:13:30.584Z,75.50
2018-05-16T07:14:30.706Z,75.31
2018-05-16T07:15:30.839Z,74.83
2018-05-16T07:16:30.996Z,74.73
2018-05-16T07:17:31.123Z,74.35
2018-05-16T07:18:31.255Z,74.64
2018-05-16T07:19:31.394Z,74.26
2018-05-16T07:20:31.536Z,74.64
2018-05-16T07:21:31.672Z,74.64
2018-05-16T07:22:31.824Z,75.60
2018-05-16T07:23:31.952Z,75.60
2018-05-16T07:24:32.094Z,75.35
2018-05-16T07:25:32.237Z,74.48
2018-05-16T07:26:32.381Z,74.39
2018-05-16T07:27:32.517Z,74.58
2018-05-16T07:28:32.686Z,74.19
2018-05-16T07:29:32.829Z,73.72
2018-05-16T07:30:32.974Z,73.04
2018-05-16T07:31:33.146Z,73.52
2018-05-16T07:32:33.338Z,74.77
2018-05-16T07:33:33.416Z,74.39
2018-05-16T07:34:33.553Z,73.81
2018-05-16T07:35:33.697Z,73.81
2018-05-16T07:36:33.834Z,74.01
2018-05-16T07:37:33.972Z,74.58
2018-05-16T07:38:34.116Z,74.58
2018-05-16T07:39:34.255Z,75.06
2018-05-16T07:40:34.403Z,74.48
2018-05-16T07:41:34.540Z,73.91
2018-05-16T07:42:34.677Z,73.04
2018-05-16T07:43:34.829Z,73.62
2018-05-16T07:44:34.964Z,73.81
2018-05-16T07:45:35.105Z,74.10
2018-05-16T07:46:35.264Z,74.48
2018-05-16T07:47:35.426Z,74.19
2018-05-16T07:48:35.563Z,73.24
2018-05-16T07:49:35.701Z,72.75
2018-05-16T07:50:35.840Z,72.18
2018-05-16T07:51:35.987Z,71.70
2018-05-16T07:52:36.128Z,71.61
2018-05-16T07:53:36.266Z,71.41
2018-05-16T07:54:36.486Z,71.80
2018-05-16T07:55:36.547Z,71.25
2018-05-16T07:56:36.685Z,71.06
2018-05-16T07:57:36.827Z,71.25
2018-05-16T07:58:36.970Z,71.35
2018-05-16T07:59:37.108Z,71.55
2018-05-16T08:00:37.244Z,71.64
2018-05-16T08:01:37.383Z,71.16
2018-05-16T08:02:37.518Z,71.45
2018-05-16T08:03:37.660Z,71.25
2018-05-16T08:04:37.809Z,72.50
2018-05-16T08:05:37.942Z,71.25
2018-05-16T08:06:38.081Z,71.87
2018-05-16T08:07:38.227Z,71.67
2018-05-16T08:08:38.365Z,71.29
2018-05-16T08:09:38.512Z,71.67
2018-05-16T08:10:38.655Z,71.29
2018-05-16T08:11:38.875Z,71.19
2018-05-16T08:12:38.995Z,71.87
2018-05-16T08:13:39.069Z,71.52
2018-05-16T08:14:39.215Z,70.14
2018-05-16T08:15:39.354Z,70.65
2018-05-16T08:16:39.494Z,70.27
2018-05-16T08:17:39.638Z,70.33
2018-05-16T08:18:39.776Z,69.40
2018-05-16T08:19:39.917Z,69.21
2018-05-16T08:20:40.063Z,69.40
2018-05-16T08:21:40.207Z,69.02
2018-05-16T08:22:40.343Z,69.02
2018-05-16T08:23:40.497Z,68.83
2018-05-16T08:24:40.698Z,69.60
2018-05-16T08:25:40.795Z,68.73
2018-05-16T08:26:40.937Z,69.21
2018-05-16T08:27:41.079Z,69.02
2018-05-16T08:28:41.236Z,69.60
2018-05-16T08:29:41.374Z,69.12
2018-05-16T08:30:41.516Z,69.79
2018-05-16T08:31:41.653Z,69.50
2018-05-16T08:32:41.804Z,68.92
2018-05-16T08:33:41.937Z,69.40
2018-05-16T08:34:42.079Z,68.73
2018-05-16T08:35:42.247Z,68.92
2018-05-16T08:36:42.451Z,69.79
2018-05-16T08:37:42.511Z,68.54
2018-05-16T08:38:42.657Z,68.25
2018-05-16T08:39:42.821Z,67.38
2018-05-16T08:40:42.961Z,67.48
2018-05-16T08:41:43.105Z,68.54
2018-05-16T08:42:43.249Z,68.44
2018-05-16T08:43:43.413Z,68.83
2018-05-16T08:44:43.546Z,68.73
2018-05-16T08:45:43.684Z,68.44
2018-05-16T08:46:43.827Z,67.96
2018-05-16T08:47:43.980Z,68.25
2018-05-16T08:48:44.125Z,69.02
2018-05-16T08:49:44.265Z,70.17
2018-05-16T08:50:44.407Z,69.69
2018-05-16T08:51:44.659Z,69.69
2018-05-16T08:52:44.616Z,69.98
2018-05-16T08:53:44.776Z,69.21
2018-05-16T08:54:44.911Z,68.44
2018-05-16T08:55:45.059Z,68.25
2018-05-16T08:56:45.199Z,68.63
2018-05-16T08:57:45.349Z,68.54
2018-05-16T08:58:45.499Z,68.92
2018-05-16T08:59:45.670Z,68.92
2018-05-16T09:00:45.806Z,67.58
2018-05-16T09:01:45.948Z,67.68
2018-05-16T09:02:46.112Z,67.68
2018-05-16T09:03:46.248Z,67.10
2018-05-16T09:04:46.388Z,68.15
2018-05-16T09:05:46.532Z,69.69
2018-05-16T09:06:46.771Z,68.57
2018-05-16T09:07:46.758Z,69.24
2018-05-16T09:08:46.901Z,70.01
2018-05-16T09:09:47.031Z,69.44
2018-05-16T09:10:47.184Z,68.57
2018-05-16T09:11:47.320Z,67.51
2018-05-16T09:12:47.466Z,67.71
2018-05-16T09:13:47.616Z,67.71
2018-05-16T09:14:47.761Z,66.65
2018-05-16T09:15:47.903Z,66.36
2018-05-16T09:16:48.042Z,66.36
2018-05-16T09:17:48.208Z,66.17
2018-05-16T09:18:48.344Z,65.01
2018-05-16T09:19:48.485Z,66.17
2018-05-16T09:20:48.633Z,66.36
2018-05-16T09:21:48.774Z,65.50
2018-05-16T09:22:48.908Z,65.30
2018-05-16T09:23:49.051Z,65.40
2018-05-16T09:24:49.222Z,64.73
2018-05-16T09:25:49.342Z,65.30
2018-05-16T09:26:49.482Z,66.17
2018-05-16T09:27:49.626Z,66.27
2018-05-16T09:28:49.791Z,66.36
2018-05-16T09:29:49.933Z,65.20
2018-05-16T09:30:50.072Z,65.88
2018-05-16T09:31:50.235Z,66.49
2018-05-16T09:32:50.393Z,66.36
2018-05-16T09:33:50.517Z,65.91
2018-05-16T09:34:50.662Z,65.14
2018-05-16T09:35:50.863Z,65.05
2018-05-16T09:36:50.977Z,64.28
2018-05-16T09:37:51.113Z,64.47
2018-05-16T09:38:51.250Z,64.56
2018-05-16T09:39:51.389Z,62.83
2018-05-16T09:40:51.521Z,62.06
2018-05-16T09:41:51.666Z,62.74
2018-05-16T09:42:51.828Z,62.64
2018-05-16T09:43:51.969Z,63.79
2018-05-16T09:44:52.111Z,63.12
2018-05-16T09:45:52.315Z,63.22
2018-05-16T09:46:52.423Z,62.26
2018-05-16T09:47:52.559Z,62.54
2018-05-16T09:48:52.734Z,62.74
2018-05-16T09:49:52.868Z,63.41
2018-05-16T09:50:53.013Z,64.66
2018-05-16T09:51:53.146Z,64.76
2018-05-16T09:52:53.288Z,63.51
2018-05-16T09:53:53.436Z,63.89
2018-05-16T09:54:53.608Z,62.64
2018-05-16T09:55:53.747Z,63.02
2018-05-16T09:56:53.894Z,63.70
2018-05-16T09:57:54.039Z,63.12
2018-05-16T09:58:54.205Z,63.79
2018-05-16T09:59:54.315Z,63.02
2018-05-16T10:00:54.458Z,62.26
2018-05-16T10:01:54.601Z,61.87
2018-05-16T10:02:54.794Z,61.29
2018-05-16T10:03:54.879Z,62.38
2018-05-16T10:04:55.014Z,63.15
2018-05-16T10:05:55.161Z,63.12
2018-05-16T10:06:55.311Z,62.06
2018-05-16T10:07:55.448Z,62.19
2018-05-16T10:08:55.591Z,62.09
2018-05-16T10:09:55.757Z,62.48
2018-05-16T10:10:55.881Z,61.77
2018-05-16T10:11:56.021Z,61.97
2018-05-16T10:12:56.165Z,61.87
2018-05-16T10:13:56.326Z,62.06
2018-05-16T10:14:56.460Z,63.12
2018-05-16T10:15:56.604Z,62.74
2018-05-16T10:16:56.758Z,62.96
2018-05-16T10:17:56.916Z,62.87
2018-05-16T10:18:57.057Z,62.87
2018-05-16T10:19:57.195Z,63.82
2018-05-16T10:20:57.370Z,62.77
2018-05-16T10:21:57.513Z,63.15
2018-05-16T10:22:58.080Z,62.29
2018-05-16T10:23:57.816Z,61.42
2018-05-16T10:24:57.944Z,61.42
2018-05-16T10:25:58.537Z,62.67
2018-05-16T10:26:58.208Z,62.29
2018-05-16T10:27:59.571Z,62.19
2018-05-16T10:28:58.498Z,63.64
2018-05-16T10:29:58.628Z,66.17
2018-05-16T10:30:58.782Z,65.37
2018-05-16T10:31:58.921Z,63.95
2018-05-16T10:32:59.066Z,64.15
2018-05-16T10:33:59.217Z,62.22
2018-05-16T10:34:59.361Z,62.80
2018-05-16T10:35:59.502Z,63.95
2018-05-16T10:37:00.776Z,63.28
2018-05-16T10:37:59.772Z,63.09
2018-05-16T10:38:59.918Z,62.25
2018-05-16T10:40:00.057Z,63.21
2018-05-16T10:41:00.221Z,61.48
2018-05-16T10:42:00.368Z,60.90
2018-05-16T10:43:00.538Z,59.07
2018-05-16T10:44:00.680Z,59.17
2018-05-16T10:45:00.827Z,61.38
2018-05-16T10:46:00.987Z,60.80
2018-05-16T10:47:01.119Z,60.71
2018-05-16T10:48:01.268Z,61.68
2018-05-16T10:49:01.414Z,61.10
2018-05-16T10:50:01.555Z,61.68
2018-05-16T10:51:01.698Z,62.25
2018-05-16T10:52:01.838Z,61.48
2018-05-16T10:53:01.976Z,61.19
2018-05-16T10:54:02.141Z,60.13
2018-05-16T10:55:02.286Z,60.42
2018-05-16T10:56:02.428Z,59.33
2018-05-16T10:57:02.571Z,59.65
2018-05-16T10:58:03.623Z,60.52
2018-05-16T10:59:02.794Z,60.13
2018-05-16T11:00:02.936Z,60.23
2018-05-16T11:01:03.077Z,59.75
2018-05-16T11:02:03.223Z,60.03
2018-05-16T11:03:03.370Z,59.75
2018-05-16T11:04:03.513Z,60.90
2018-05-16T11:05:03.664Z,60.80
2018-05-16T11:06:03.799Z,60.42
2018-05-16T11:07:03.943Z,60.13
2018-05-16T11:08:04.083Z,59.94
2018-05-16T11:09:04.233Z,60.13
2018-05-16T11:10:04.382Z,60.23
2018-05-16T11:11:04.531Z,61.77
2018-05-16T11:12:04.679Z,61.65
2018-05-16T11:13:04.816Z,61.96
2018-05-16T11:14:04.955Z,62.03
2018-05-16T11:15:05.098Z,61.65
2018-05-16T11:16:05.252Z,61.25
2018-05-16T11:17:05.396Z,61.45
2018-05-16T11:18:05.540Z,61.16
2018-05-16T11:19:05.676Z,60.49
2018-05-16T11:20:05.822Z,61.16
2018-05-16T11:21:05.953Z,62.03
2018-05-16T11:22:06.093Z,62.22
2018-05-16T11:23:06.236Z,63.18
2018-05-16T11:24:06.385Z,62.99
2018-05-16T11:25:06.543Z,63.09
2018-05-16T11:26:06.679Z,61.04
2018-05-16T11:27:06.823Z,61.45
2018-05-16T11:28:06.966Z,61.52
2018-05-16T11:29:07.129Z,61.42
2018-05-16T11:30:07.273Z,60.75
2018-05-16T11:31:07.417Z,60.36
2018-05-16T11:32:07.565Z,60.75
2018-05-16T11:33:07.714Z,59.97
2018-05-16T11:34:07.853Z,60.27
2018-05-16T11:35:08.009Z,61.04
2018-05-16T11:36:08.151Z,61.71
2018-05-16T11:37:08.342Z,62.96
2018-05-16T11:38:08.451Z,63.73
2018-05-16T11:39:08.591Z,63.44
2018-05-16T11:40:08.731Z,62.87
2018-05-16T11:41:08.908Z,63.64
2018-05-16T11:42:09.037Z,63.54
2018-05-16T11:43:09.176Z,63.25
2018-05-16T11:44:09.317Z,62.48
2018-05-16T11:45:09.465Z,62.67
2018-05-16T11:46:09.603Z,62.57
2018-05-16T11:47:09.746Z,63.34
2018-05-16T11:48:09.896Z,62.57
2018-05-16T11:49:10.033Z,62.00
2018-05-16T11:50:10.177Z,62.57
2018-05-16T11:51:10.321Z,63.15
2018-05-16T11:52:10.489Z,62.87
2018-05-16T11:53:10.676Z,63.64
2018-05-16T11:54:10.770Z,62.87
2018-05-16T11:55:10.934Z,62.00
2018-05-16T11:56:11.091Z,62.00
2018-05-16T11:57:11.213Z,62.19
2018-05-16T11:58:11.360Z,61.52
2018-05-16T11:59:11.561Z,60.55
2018-05-16T12:00:11.672Z,60.84
2018-05-16T12:01:11.813Z,60.46
2018-05-16T12:02:11.954Z,62.09
2018-05-16T12:03:12.123Z,61.65
2018-05-16T12:04:12.261Z,60.75
2018-05-16T12:05:12.430Z,60.77
2018-05-16T12:06:12.543Z,59.91
2018-05-16T12:07:12.697Z,60.00
2018-05-16T12:08:12.842Z,60.49
2018-05-16T12:09:13.041Z,62.12
2018-05-16T12:10:13.167Z,62.03
2018-05-16T12:11:13.295Z,62.32
2018-05-16T12:12:13.441Z,63.02
2018-05-16T12:13:13.598Z,63.12
2018-05-16T12:14:13.732Z,63.21
2018-05-16T12:15:13.872Z,63.21
2018-05-16T12:16:14.019Z,62.45
2018-05-16T12:17:14.189Z,62.35
2018-05-16T12:18:14.332Z,61.29
2018-05-16T12:19:14.473Z,61.77
2018-05-16T12:20:14.614Z,62.93
2018-05-16T12:21:14.783Z,62.45
2018-05-16T12:22:14.916Z,62.45
2018-05-16T12:23:15.063Z,62.45
2018-05-16T12:24:15.226Z,61.58
2018-05-16T12:25:15.366Z,60.61
2018-05-16T12:26:15.509Z,60.32
2018-05-16T12:27:15.652Z,59.84
2018-05-16T12:28:15.801Z,59.94
2018-05-16T12:29:16.000Z,59.84
2018-05-16T12:30:16.084Z,60.52
2018-05-16T12:31:16.243Z,60.61
2018-05-16T12:32:16.385Z,60.13
2018-05-16T12:33:16.529Z,60.71
2018-05-16T12:34:16.691Z,61.07
2018-05-16T12:35:16.835Z,61.74
2018-05-16T12:36:16.972Z,63.85
2018-05-16T12:37:17.119Z,66.75
2018-05-16T12:38:17.284Z,68.84
2018-05-16T12:39:17.400Z,69.89
2018-05-16T12:40:17.541Z,70.28
2018-05-16T12:41:17.692Z,70.28
2018-05-16T12:42:17.882Z,71.01
2018-05-16T12:43:18.019Z,71.97
2018-05-16T12:44:18.162Z,71.97
2018-05-16T12:45:18.305Z,72.45
2018-05-16T12:46:18.535Z,74.05
2018-05-16T12:47:18.592Z,73.86
2018-05-16T12:48:18.741Z,75.31
2018-05-16T12:49:18.971Z,75.23
2018-05-16T12:50:19.046Z,75.42
2018-05-16T12:51:19.184Z,75.52
2018-05-16T12:52:19.341Z,76.15
2018-05-16T12:53:19.477Z,76.40
2018-05-16T12:54:19.660Z,77.33